Time;durP1;ratioP1;P1;durP2;ratioP2;P2;SDS_P1;SDS_P2;PMS_P1;PMS_P2;Temp;Humidity;BMP_temperature;BMP_pressure;BME280_temperature;BME280_humidity;BME280_pressure;Samples;Min_cycle;Max_cycle;Signal;HPM_P1;HPM_P2
2021/10/22 00:00:26;;;;;;;8.20;3.70;;;;;;;20.06;55.06;99971.16;1731599;81;21295;-71
2021/10/22 00:02:52;;;;;;;7.23;3.27;;;;;;;20.18;54.89;99973.09;1730575;81;21175;-71
2021/10/22 00:05:19;;;;;;;10.87;3.60;;;;;;;20.24;54.03;99964.69;1718397;82;21159;-65
2021/10/22 00:07:46;;;;;;;10.03;3.73;;;;;;;20.11;54.34;99959.80;1713677;81;21278;-70
2021/10/22 00:10:14;;;;;;;6.47;3.50;;;;;;;20.04;55.36;99958.72;1728237;81;21149;-72
2021/10/22 00:12:42;;;;;;;6.10;3.53;;;;;;;20.11;55.21;99953.19;1726243;81;21218;-71
2021/10/22 00:15:10;;;;;;;6.07;3.50;;;;;;;20.31;54.42;99957.85;1728493;81;21240;-71
2021/10/22 00:17:38;;;;;;;6.20;2.83;;;;;;;20.23;54.81;99940.59;1727822;81;21224;-66
2021/10/22 00:20:09;;;;;;;7.33;2.93;;;;;;;20.06;55.91;99949.19;1726224;81;21309;-71
2021/10/22 00:22:38;;;;;;;5.53;3.27;;;;;;;20.18;55.65;99940.02;1726814;81;23028;-72
2021/10/22 00:25:06;;;;;;;7.07;3.00;;;;;;;20.50;54.51;99936.56;1718063;81;21566;-72
2021/10/22 00:27:32;;;;;;;5.90;2.70;;;;;;;20.47;54.62;99927.77;1727151;81;21242;-67
2021/10/22 00:29:59;;;;;;;6.13;3.23;;;;;;;20.37;55.40;99927.70;1726019;81;21151;-73
2021/10/22 00:32:27;;;;;;;5.93;3.03;;;;;;;20.38;55.60;99914.72;1727851;81;21736;-73
2021/10/22 00:34:53;;;;;;;9.13;3.57;;;;;;;20.62;55.00;99927.09;1699734;83;21254;-73
2021/10/22 00:37:21;;;;;;;6.50;3.73;;;;;;;20.70;54.45;99919.18;1701751;82;21278;-67
2021/10/22 00:39:48;;;;;;;7.97;3.20;;;;;;;20.76;54.32;99919.45;1722962;81;21428;-72
2021/10/22 00:42:16;;;;;;;8.73;3.40;;;;;;;20.68;54.20;99919.42;1722319;81;21172;-71
2021/10/22 00:44:43;;;;;;;6.03;3.20;;;;;;;20.86;53.48;99914.20;1725746;81;21759;-71
2021/10/22 00:47:09;;;;;;;9.57;3.60;;;;;;;20.87;53.16;99903.88;1728264;81;21438;-71
2021/10/22 00:49:36;;;;;;;5.80;3.10;;;;;;;20.55;54.36;99913.28;1725981;81;21086;-71
2021/10/22 00:52:04;;;;;;;6.93;4.03;;;;;;;20.59;54.76;99912.50;1728573;81;22652;-72
2021/10/22 00:54:32;;;;;;;7.87;3.80;;;;;;;20.51;55.07;99912.98;1730145;81;21226;-73
2021/10/22 00:56:58;;;;;;;8.30;3.60;;;;;;;20.64;55.10;99917.02;1726404;81;21839;-71
2021/10/22 00:59:25;;;;;;;8.30;3.30;;;;;;;20.33;55.27;99914.70;1728467;81;21335;-67
2021/10/22 01:01:51;;;;;;;5.73;3.57;;;;;;;19.97;58.63;99918.97;1701566;82;21673;-72
2021/10/22 01:04:18;;;;;;;5.70;3.10;;;;;;;19.92;60.21;99916.53;1712164;81;21745;-73
2021/10/22 01:06:44;;;;;;;6.87;3.20;;;;;;;19.81;62.30;99917.53;1727264;81;21334;-73
2021/10/22 01:09:12;;;;;;;9.37;3.50;;;;;;;19.85;62.72;99916.47;1730080;81;21275;-73
2021/10/22 01:11:39;;;;;;;6.23;3.30;;;;;;;20.11;61.57;99910.32;1721029;81;21816;-67
2021/10/22 01:14:08;;;;;;;6.60;3.50;;;;;;;20.18;60.94;99914.08;1721434;82;21305;-72
2021/10/22 01:16:41;;;;;;;7.70;3.47;;;;;;;20.20;60.58;99902.73;1666875;84;21198;-72
2021/10/22 01:19:15;;;;;;;8.80;4.10;;;;;;;20.48;59.02;99905.52;1668681;84;21879;-73
2021/10/22 01:21:43;;;;;;;7.00;3.70;;;;;;;20.49;58.87;99909.79;1657713;84;21266;-73
2021/10/22 01:24:10;;;;;;;7.20;3.17;;;;;;;20.37;59.56;99905.20;1666958;84;21226;-73
2021/10/22 01:26:37;;;;;;;7.27;3.83;;;;;;;20.43;58.98;99910.80;1689221;83;21377;-74
2021/10/22 01:29:03;;;;;;;8.90;3.90;;;;;;;20.66;58.00;99906.98;1691182;83;21383;-65
2021/10/22 01:31:30;;;;;;;6.03;3.83;;;;;;;20.81;56.73;99893.80;1682082;83;21325;-71
2021/10/22 01:33:57;;;;;;;6.73;3.63;;;;;;;20.85;55.75;99900.70;1691235;83;21458;-72
2021/10/22 01:36:26;;;;;;;7.27;3.37;;;;;;;20.83;56.06;99898.30;1691295;83;21372;-71
2021/10/22 01:38:53;;;;;;;7.63;3.90;;;;;;;20.83;56.06;99898.30;1691009;83;21492;-73
2021/10/22 01:41:20;;;;;;;6.60;3.60;;;;;;;20.83;56.12;99902.27;1689840;83;21847;-68
2021/10/22 01:43:48;;;;;;;7.07;3.67;;;;;;;21.04;54.96;99891.75;1658399;85;22035;-74
2021/10/22 01:46:14;;;;;;;8.13;3.77;;;;;;;21.04;54.96;99891.75;1679839;83;21862;-74
2021/10/22 01:48:41;;;;;;;8.63;3.50;;;;;;;21.03;54.85;99896.26;1689329;83;21779;-74
2021/10/22 01:51:08;;;;;;;7.40;4.13;;;;;;;21.00;55.09;99895.98;1683833;83;21286;-72
2021/10/22 01:53:35;;;;;;;6.20;3.70;;;;;;;20.96;55.37;99901.00;1690599;83;22576;-72
2021/10/22 01:56:01;;;;;;;9.20;4.13;;;;;;;21.05;54.87;99903.41;1691526;83;21387;-73
2021/10/22 01:58:28;;;;;;;9.87;4.27;;;;;;;21.32;54.12;99902.41;1682808;83;21163;-74
2021/10/22 02:00:56;;;;;;;6.93;3.53;;;;;;;21.22;54.07;99889.16;1674969;84;21513;-71
2021/10/22 02:03:23;;;;;;;7.63;3.87;;;;;;;21.18;53.80;99902.13;1691696;83;21474;-72
2021/10/22 02:05:50;;;;;;;7.23;3.37;;;;;;;21.17;54.21;99903.70;1717690;81;21406;-73
2021/10/22 02:08:16;;;;;;;8.33;3.93;;;;;;;21.08;54.47;99901.56;1724444;81;21820;-73
2021/10/22 02:10:43;;;;;;;6.93;3.93;;;;;;;21.26;53.38;99906.92;1731875;81;21280;-73
2021/10/22 02:13:10;;;;;;;7.83;3.57;;;;;;;21.26;53.38;99906.92;1730196;81;21393;-67
2021/10/22 02:15:37;;;;;;;6.67;3.80;;;;;;;21.20;53.62;99900.53;1731396;81;21755;-67
2021/10/22 02:18:03;;;;;;;7.30;3.53;;;;;;;21.33;53.57;99899.55;1721707;81;21505;-74
2021/10/22 02:20:30;;;;;;;6.87;3.87;;;;;;;21.46;52.12;99893.45;1730555;81;21917;-72
2021/10/22 02:22:56;;;;;;;6.50;3.53;;;;;;;21.46;52.12;99893.45;1723963;81;21434;-70
2021/10/22 02:25:23;;;;;;;7.43;5.03;;;;;;;21.40;52.50;99901.92;1725914;81;21851;-67
2021/10/22 02:27:49;;;;;;;7.43;3.63;;;;;;;21.41;52.57;99895.58;1723347;81;21392;-71
2021/10/22 02:30:16;;;;;;;6.13;3.37;;;;;;;21.41;52.57;99895.58;1725438;81;21497;-71
2021/10/22 02:32:42;;;;;;;6.07;3.33;;;;;;;21.20;52.82;99892.05;1725013;81;21904;-72
2021/10/22 02:35:09;;;;;;;14.73;4.80;;;;;;;21.16;53.18;99900.79;1725273;81;21363;-71
2021/10/22 02:37:36;;;;;;;8.40;4.40;;;;;;;21.25;53.04;99908.48;1723799;81;21441;-70
2021/10/22 02:40:04;;;;;;;8.10;4.27;;;;;;;21.32;52.01;99899.76;1717810;81;21540;-72
2021/10/22 02:42:34;;;;;;;5.90;3.50;;;;;;;21.32;52.01;99899.76;1722431;81;21377;-73
2021/10/22 02:45:00;;;;;;;8.73;4.37;;;;;;;21.31;52.70;99898.17;1725229;81;21389;-71
2021/10/22 02:47:27;;;;;;;7.30;3.90;;;;;;;21.31;52.70;99898.17;1723802;81;22089;-65
2021/10/22 02:49:53;;;;;;;10.43;4.33;;;;;;;21.33;52.74;99898.75;1701909;81;22702;-71
2021/10/22 02:52:20;;;;;;;7.77;3.67;;;;;;;21.51;52.11;99899.55;1723778;81;21515;-71
2021/10/22 02:54:47;;;;;;;8.40;4.67;;;;;;;21.49;52.33;99899.56;1722552;81;21436;-71
2021/10/22 02:57:14;;;;;;;7.13;4.20;;;;;;;21.60;51.74;99896.66;1725162;81;21545;-66
2021/10/22 02:59:41;;;;;;;7.73;4.70;;;;;;;21.24;53.79;99900.27;1725592;81;21517;-70
2021/10/22 03:02:07;;;;;;;8.27;4.30;;;;;;;21.24;53.79;99900.27;1732547;80;21724;-72
2021/10/22 03:04:35;;;;;;;7.17;4.00;;;;;;;21.42;53.20;99898.48;1767224;81;21735;-74
2021/10/22 03:07:02;;;;;;;6.43;4.40;;;;;;;21.74;52.32;99897.44;1755837;81;21946;-72
2021/10/22 03:09:28;;;;;;;8.93;4.97;;;;;;;21.74;52.32;99897.44;1764249;81;22206;-71
2021/10/22 03:11:55;;;;;;;6.43;4.10;;;;;;;21.77;51.79;99892.94;1766548;81;21907;-72
2021/10/22 03:14:21;;;;;;;8.97;4.70;;;;;;;21.65;52.40;99895.85;1766332;81;21349;-72
2021/10/22 03:16:49;;;;;;;8.27;4.80;;;;;;;21.52;52.73;99897.19;1765980;80;21447;-71
2021/10/22 03:19:15;;;;;;;8.87;4.63;;;;;;;21.70;52.67;99891.08;1765866;81;21659;-67
2021/10/22 03:21:41;;;;;;;8.97;4.23;;;;;;;21.62;52.84;99893.72;1765501;81;21939;-73
2021/10/22 03:24:08;;;;;;;8.63;4.73;;;;;;;21.70;52.73;99878.60;1756156;81;21574;-72
2021/10/22 03:26:35;;;;;;;7.23;4.43;;;;;;;21.67;53.14;99896.40;1766615;81;21744;-71
2021/10/22 03:29:02;;;;;;;7.43;5.03;;;;;;;21.74;52.93;99890.27;1767283;81;21596;-68
2021/10/22 03:31:29;;;;;;;8.80;4.73;;;;;;;21.74;52.93;99890.27;1766144;81;21488;-69
2021/10/22 03:33:56;;;;;;;8.20;4.53;;;;;;;21.79;53.42;99887.64;1766983;81;23301;-72
2021/10/22 03:36:23;;;;;;;9.00;5.70;;;;;;;22.01;52.78;99880.73;1766686;81;21462;-73
2021/10/22 03:38:49;;;;;;;7.70;5.33;;;;;;;22.01;52.78;99880.73;1767137;81;21398;-71
2021/10/22 03:41:16;;;;;;;9.57;5.20;;;;;;;21.96;52.55;99877.27;1766092;81;21542;-72
2021/10/22 03:43:43;;;;;;;8.77;5.30;;;;;;;21.96;52.55;99877.27;1766427;81;21574;-72
2021/10/22 03:46:11;;;;;;;7.83;5.17;;;;;;;21.98;53.13;99883.12;1767048;81;21497;-73
2021/10/22 03:48:38;;;;;;;9.30;5.80;;;;;;;22.02;52.83;99865.05;1758244;81;21604;-73
2021/10/22 03:51:06;;;;;;;8.03;5.20;;;;;;;21.98;53.44;99865.87;1770382;78;21669;-67
2021/10/22 03:53:33;;;;;;;8.00;5.20;;;;;;;22.32;52.40;99863.43;1775903;80;21633;-72
2021/10/22 03:56:00;;;;;;;9.73;6.80;;;;;;;22.41;51.92;99855.16;1783372;80;21808;-72
2021/10/22 03:58:27;;;;;;;7.30;5.33;;;;;;;22.36;51.70;99846.42;1782139;79;21613;-73
2021/10/22 04:00:53;;;;;;;7.80;5.37;;;;;;;22.42;51.89;99844.79;1782199;80;21969;-74
2021/10/22 04:03:20;;;;;;;8.40;5.57;;;;;;;22.30;52.05;99850.95;1783700;79;21599;-67
2021/10/22 04:05:46;;;;;;;11.70;6.97;;;;;;;22.37;52.19;99840.83;1778151;78;21731;-72
2021/10/22 04:08:13;;;;;;;8.23;6.07;;;;;;;22.37;52.19;99840.83;1779669;80;22102;-74
2021/10/22 04:10:43;;;;;;;9.83;6.10;;;;;;;22.31;52.57;99842.72;1779779;79;22249;-73
2021/10/22 04:13:13;;;;;;;11.17;6.30;;;;;;;22.27;52.87;99854.92;1786364;79;21501;-72
2021/10/22 04:15:40;;;;;;;8.60;6.87;;;;;;;22.22;53.16;99862.13;1784983;79;21615;-69
2021/10/22 04:18:08;;;;;;;11.73;8.20;;;;;;;22.31;53.32;99844.56;1785268;79;22119;-72
2021/10/22 04:20:35;;;;;;;11.23;8.93;;;;;;;22.34;53.63;99846.14;1786748;79;21893;-72
2021/10/22 04:23:02;;;;;;;11.20;7.70;;;;;;;22.35;53.58;99860.24;1779103;79;21701;-70
2021/10/22 04:25:29;;;;;;;10.47;8.23;;;;;;;22.28;54.49;99862.38;1783137;79;21646;-70
2021/10/22 04:27:56;;;;;;;14.20;8.80;;;;;;;22.40;54.61;99862.08;1785055;79;21701;-70
2021/10/22 04:30:22;;;;;;;12.77;10.10;;;;;;;22.66;53.87;99866.77;1786925;79;21382;-70
2021/10/22 04:32:49;;;;;;;17.93;11.53;;;;;;;22.53;54.05;99866.80;1776720;80;21653;-70
2021/10/22 04:35:15;;;;;;;12.83;10.13;;;;;;;22.70;53.63;99864.62;1784850;79;21597;-70
2021/10/22 04:40:31;;;;;;;16.05;11.25;;;;;;;22.97;52.48;99870.88;1774397;78;21727;-68
2021/10/22 04:43:06;;;;;;;16.53;11.83;;;;;;;23.11;51.96;99870.27;1769119;79;21034;-70
2021/10/22 04:45:35;;;;;;;14.90;10.67;;;;;;;22.66;53.54;99874.73;1784166;80;21455;-71
2021/10/22 04:48:02;;;;;;;13.67;10.80;;;;;;;22.46;54.77;99879.57;1784895;80;21676;-73
2021/10/22 04:50:29;;;;;;;14.87;11.33;;;;;;;22.46;54.77;99879.57;1774976;79;21431;-73
2021/10/22 04:52:55;;;;;;;15.87;11.03;;;;;;;22.47;55.08;99887.28;1785003;80;22198;-72
2021/10/22 04:55:27;;;;;;;19.67;14.33;;;;;;;22.44;55.64;99891.02;1783381;80;21661;-69
2021/10/22 04:57:54;;;;;;;16.33;11.00;;;;;;;22.37;56.59;99891.29;1773737;80;22268;-71
2021/10/22 05:00:21;;;;;;;16.57;12.30;;;;;;;22.44;56.50;99895.79;1784365;80;21658;-70
2021/10/22 05:02:48;;;;;;;14.90;11.83;;;;;;;22.44;56.22;99891.80;1770948;80;21716;-69
2021/10/22 05:05:15;;;;;;;19.73;12.40;;;;;;;22.32;57.12;99891.31;1767053;81;21638;-67
2021/10/22 05:07:42;;;;;;;20.33;14.70;;;;;;;22.34;57.38;99907.22;1781776;78;22882;-70
2021/10/22 05:10:10;;;;;;;44.27;27.47;;;;;;;22.59;56.18;99910.34;1792401;79;21677;-70
2021/10/22 05:12:37;;;;;;;30.67;19.20;;;;;;;22.80;54.46;99906.27;1793521;79;21731;-70
2021/10/22 05:15:06;;;;;;;53.13;31.33;;;;;;;22.58;55.06;99905.31;1793360;79;21627;-68
2021/10/22 05:17:33;;;;;;;50.17;30.63;;;;;;;22.40;56.09;99913.86;1792297;79;21746;-70
2021/10/22 05:20:00;;;;;;;23.33;16.07;;;;;;;22.19;57.60;99923.72;1793659;79;22464;-69
2021/10/22 05:22:27;;;;;;;26.13;15.83;;;;;;;22.09;58.79;99927.16;1793941;78;21714;-72
2021/10/22 05:24:53;;;;;;;24.70;15.83;;;;;;;22.08;59.36;99929.53;1780782;79;21610;-71
2021/10/22 05:27:20;;;;;;;19.47;15.43;;;;;;;22.33;58.34;99940.70;1792753;78;21559;-71
2021/10/22 05:29:48;;;;;;;19.67;14.33;;;;;;;22.45;57.46;99939.08;1792249;79;21649;-71
2021/10/22 05:32:14;;;;;;;20.37;14.20;;;;;;;22.36;57.62;99952.11;1793917;79;22291;-70
2021/10/22 05:34:41;;;;;;;18.53;14.27;;;;;;;22.31;58.49;99960.06;1793575;78;21772;-69
2021/10/22 05:37:08;;;;;;;17.97;12.00;;;;;;;22.36;58.10;99956.09;1793323;79;21662;-68
2021/10/22 05:39:35;;;;;;;18.37;14.13;;;;;;;22.15;59.41;99945.23;1786848;79;22105;-70
2021/10/22 05:42:02;;;;;;;18.93;14.20;;;;;;;22.17;59.69;99954.53;1793063;78;21717;-70
2021/10/22 05:44:28;;;;;;;19.43;13.33;;;;;;;22.25;59.35;99956.64;1793688;79;21716;-69
2021/10/22 05:46:55;;;;;;;16.97;13.00;;;;;;;22.37;58.89;99960.34;1788467;78;21731;-70
2021/10/22 05:49:23;;;;;;;20.37;16.07;;;;;;;22.36;59.31;99961.41;1770374;79;22157;-69
2021/10/22 05:51:50;;;;;;;17.43;13.67;;;;;;;22.53;58.29;99951.80;1758838;80;21776;-69
2021/10/22 05:54:17;;;;;;;14.33;11.13;;;;;;;22.42;58.88;99959.52;1772364;80;22188;-69
2021/10/22 05:56:44;;;;;;;20.43;14.13;;;;;;;22.43;59.18;99959.27;1772261;80;21688;-70
2021/10/22 05:59:11;;;;;;;37.90;22.37;;;;;;;22.65;58.13;99968.23;1772462;80;21626;-69
2021/10/22 06:01:37;;;;;;;34.47;21.20;;;;;;;22.80;56.96;99965.53;1769211;80;21805;-70
2021/10/22 06:04:05;;;;;;;39.57;23.63;;;;;;;22.48;58.74;99957.92;1760635;81;21614;-70
2021/10/22 06:06:33;;;;;;;38.37;26.63;;;;;;;22.43;59.30;99964.59;1751842;80;21736;-70
2021/10/22 06:08:59;;;;;;;24.80;16.63;;;;;;;22.48;59.57;99966.43;1760774;81;21651;-69
2021/10/22 06:11:26;;;;;;;27.60;18.73;;;;;;;22.65;58.65;99966.91;1760252;81;21640;-69
2021/10/22 06:13:53;;;;;;;26.20;18.20;;;;;;;22.46;59.83;99954.73;1775212;79;21486;-70
2021/10/22 06:16:22;;;;;;;18.50;13.20;;;;;;;22.62;59.77;99965.34;1778779;80;21715;-68
2021/10/22 06:19:01;;;;;;;22.10;14.00;;;;;;;22.44;60.57;99972.02;1779782;79;21764;-68
2021/10/22 06:23:54;;;;;;;21.60;13.63;;;;;;;22.45;61.13;99958.45;1777663;80;21662;-70
2021/10/22 06:26:23;;;;;;;18.47;13.57;;;;;;;22.39;63.10;99960.88;1781791;79;21668;-70
2021/10/22 06:28:51;;;;;;;16.23;11.90;;;;;;;22.51;62.06;99964.03;1752916;80;21791;-69
2021/10/22 06:31:20;;;;;;;20.80;11.97;;;;;;;22.75;60.69;99952.80;1767373;80;21162;-69
2021/10/22 06:33:47;;;;;;;17.03;13.17;;;;;;;22.82;60.09;99916.11;1759046;80;20935;-69
2021/10/22 06:36:13;;;;;;;17.23;13.23;;;;;;;23.10;58.65;99927.97;1780123;79;21036;-68
2021/10/22 06:38:40;;;;;;;20.90;13.07;;;;;;;23.26;56.76;99953.42;1770613;79;21546;-69
2021/10/22 06:41:09;;;;;;;17.10;12.07;;;;;;;23.29;56.49;99957.38;1771464;80;21075;-70
2021/10/22 06:43:37;;;;;;;14.33;10.80;;;;;;;23.50;55.36;99951.42;1786623;80;21504;-69
2021/10/22 06:46:05;;;;;;;16.10;11.87;;;;;;;23.70;54.12;99946.52;1783070;80;20973;-69
2021/10/22 06:48:32;;;;;;;17.63;12.43;;;;;;;23.53;54.48;99941.56;1769067;78;21672;-69
2021/10/22 06:50:58;;;;;;;18.80;12.43;;;;;;;23.48;54.85;99938.38;1778379;80;21105;-70
2021/10/22 06:53:25;;;;;;;18.20;13.07;;;;;;;23.43;55.09;99942.95;1785732;80;21010;-73
2021/10/22 06:55:51;;;;;;;16.93;11.57;;;;;;;23.31;56.00;99937.97;1787589;80;22219;-69
2021/10/22 06:58:18;;;;;;;18.20;11.53;;;;;;;23.16;56.88;99940.71;1779818;78;21707;-70
2021/10/22 07:00:48;;;;;;;18.40;13.70;;;;;;;22.91;58.70;99946.90;1785780;80;21050;-70
2021/10/22 07:03:18;;;;;;;19.50;14.03;;;;;;;22.91;59.42;99934.43;1787273;79;21157;-68
2021/10/22 07:08:10;;;;;;;21.60;14.90;;;;;;;22.90;60.59;99927.50;1771578;79;21027;-70
2021/10/22 07:10:36;;;;;;;21.63;15.80;;;;;;;23.01;59.12;99921.10;1748858;80;21007;-71
2021/10/22 07:13:03;;;;;;;17.67;13.43;;;;;;;23.13;58.73;99918.66;1828368;78;21484;-71
2021/10/22 07:15:30;;;;;;;21.17;15.57;;;;;;;23.31;57.37;99904.72;1828357;77;21172;-69
2021/10/22 07:18:00;;;;;;;19.70;15.67;;;;;;;23.24;57.56;99910.88;1827598;78;21022;-69
2021/10/22 07:20:27;;;;;;;22.33;15.60;;;;;;;23.18;56.96;99913.30;1808584;77;20955;-69
2021/10/22 07:23:01;;;;;;;20.73;17.43;;;;;;;23.05;57.87;99926.67;1816145;77;21296;-69
2021/10/22 07:25:24;;;;;;;19.60;14.73;;;;;;;23.11;58.14;99930.08;1820036;77;22210;-69
2021/10/22 07:27:51;;;;;;;17.97;14.30;;;;;;;23.30;56.59;99927.87;1806165;78;21096;-69
2021/10/22 07:30:19;;;;;;;19.87;13.87;;;;;;;23.45;55.68;99925.65;1811187;77;21433;-69
2021/10/22 07:32:50;;;;;;;17.23;13.80;;;;;;;23.38;55.80;99916.39;1811526;78;21037;-69
2021/10/22 07:35:17;;;;;;;19.00;14.43;;;;;;;23.16;56.85;99920.23;1826318;78;21536;-69
2021/10/22 07:37:44;;;;;;;18.50;14.87;;;;;;;23.09;57.70;99917.08;1813884;78;21050;-70
2021/10/22 07:40:11;;;;;;;20.40;15.90;;;;;;;23.25;56.87;99910.59;1827812;78;21165;-70
2021/10/22 07:42:37;;;;;;;21.53;15.80;;;;;;;23.14;58.13;99920.23;1825805;77;21450;-70
2021/10/22 07:45:06;;;;;;;25.43;17.33;;;;;;;23.23;57.65;99927.38;1826614;77;22369;-71
2021/10/22 07:47:35;;;;;;;20.10;14.53;;;;;;;23.13;57.93;99917.33;1827775;77;21165;-68
2021/10/22 07:50:05;;;;;;;16.33;12.57;;;;;;;23.45;56.67;99915.52;1815834;78;21553;-69
2021/10/22 07:52:32;;;;;;;20.50;16.93;;;;;;;23.82;54.77;99915.55;1792162;79;21136;-70
2021/10/22 07:54:59;;;;;;;20.37;15.20;;;;;;;23.85;54.24;99917.66;1793222;79;21452;-69
2021/10/22 07:57:27;;;;;;;34.17;18.90;;;;;;;23.65;55.07;99926.58;1794583;79;21058;-69
2021/10/22 07:59:53;;;;;;;21.20;14.93;;;;;;;23.59;55.69;99929.80;1784912;79;21519;-69
2021/10/22 08:02:21;;;;;;;18.70;14.20;;;;;;;23.37;57.30;99930.20;1765079;78;21872;-69
2021/10/22 08:04:49;;;;;;;17.07;13.90;;;;;;;23.46;57.27;99924.57;1782835;80;21118;-69
2021/10/22 08:07:20;;;;;;;18.77;15.87;;;;;;;23.71;55.78;99928.92;1777187;80;20916;-70
2021/10/22 08:09:48;;;;;;;23.40;16.07;;;;;;;23.86;54.73;99928.02;1784848;79;27553;-70
2021/10/22 08:12:18;;;;;;;21.33;16.10;;;;;;;24.07;54.04;99941.17;1784208;80;20923;-70
2021/10/22 08:14:46;;;;;;;18.87;14.27;;;;;;;24.26;53.27;99943.38;1785636;79;20964;-71
2021/10/22 08:17:19;;;;;;;20.30;15.60;;;;;;;24.40;52.11;99944.34;1775995;80;21091;-71
2021/10/22 08:19:54;;;;;;;21.43;16.63;;;;;;;24.61;50.59;99953.44;1763493;80;21054;-69
2021/10/22 08:22:26;;;;;;;20.93;16.30;;;;;;;24.64;49.47;99970.99;1783543;80;20951;-70
2021/10/22 08:25:04;;;;;;;16.30;13.70;;;;;;;24.86;48.75;99967.82;1772770;78;21054;-70
2021/10/22 08:27:41;;;;;;;17.27;13.67;;;;;;;25.01;48.03;99962.84;1777773;79;20943;-71
2021/10/22 08:30:10;;;;;;;28.33;16.00;;;;;;;24.65;48.47;99965.91;1780146;80;21187;-71
2021/10/22 08:32:38;;;;;;;21.00;16.27;;;;;;;24.22;50.53;99970.33;1780937;80;20956;-72
2021/10/22 08:35:06;;;;;;;25.43;18.17;;;;;;;24.54;50.20;99983.08;1783448;80;21009;-70
2021/10/22 08:37:36;;;;;;;17.37;13.97;;;;;;;24.59;49.66;99986.26;1781010;80;20991;-69
2021/10/22 08:40:07;;;;;;;21.17;16.83;;;;;;;24.73;48.90;99977.82;1783569;78;20979;-70
2021/10/22 08:42:34;;;;;;;;;;;;;;;24.64;48.69;99977.66;1790178;79;21151;-70
2021/10/22 08:45:01;;;;;;;17.50;13.20;;;;;;;24.61;48.89;99978.76;1789053;79;20235;-71
2021/10/22 08:47:32;;;;;;;20.00;14.70;;;;;;;24.18;50.44;99981.28;1783778;80;21062;-69
2021/10/22 08:50:02;;;;;;;18.17;14.68;;;;;;;24.19;50.47;99975.66;1772149;80;21004;-71
2021/10/22 08:52:29;;;;;;;21.80;15.97;;;;;;;24.35;50.00;99984.30;1783599;78;21663;-72
2021/10/22 08:54:57;;;;;;;19.83;14.57;;;;;;;24.42;49.74;99991.47;1784541;78;21085;-72
2021/10/22 08:57:24;;;;;;;22.33;17.13;;;;;;;24.56;49.25;99992.14;1773269;79;21604;-72
2021/10/22 08:59:56;;;;;;;33.53;23.13;;;;;;;24.48;49.33;99994.34;1785635;79;20979;-70
2021/10/22 09:02:22;;;;;;;30.53;22.87;;;;;;;24.46;48.94;99993.03;1776821;80;21178;-72
2021/10/22 09:04:49;;;;;;;34.77;25.87;;;;;;;24.69;48.35;99978.13;1766251;80;21042;-74
2021/10/22 09:07:19;;;;;;;35.70;25.47;;;;;;;24.85;47.89;99982.23;1793778;79;21166;-76
2021/10/22 09:09:47;;;;;;;55.45;37.28;;;;;;;24.99;47.64;99981.78;1780620;78;20986;-72
2021/10/22 09:12:13;;;;;;;36.33;24.17;;;;;;;25.03;47.25;99981.21;1793035;79;21113;-72
2021/10/22 09:14:59;;;;;;;28.73;20.07;;;;;;;25.06;46.92;99981.98;1792076;79;21037;-72
2021/10/22 09:17:39;;;;;;;24.90;18.13;;;;;;;25.04;46.90;99970.28;1792458;78;21460;-71
2021/10/22 09:20:07;;;;;;;22.60;17.37;;;;;;;25.35;46.18;99966.69;1792606;78;21132;-72
2021/10/22 09:22:35;;;;;;;27.33;20.30;;;;;;;25.59;45.49;99959.93;1793556;79;21006;-70
2021/10/22 09:25:12;;;;;;;30.50;20.87;;;;;;;25.61;45.56;99954.29;1793650;79;21113;-72
2021/10/22 09:27:43;;;;;;;29.10;19.97;;;;;;;25.68;45.18;99956.88;1781418;78;21461;-71
2021/10/22 09:30:37;;;;;;;23.97;17.93;;;;;;;26.04;43.96;99963.54;1793975;79;21323;-70
2021/10/22 09:33:15;;;;;;;25.73;17.77;;;;;;;26.17;43.26;99964.09;1783781;78;21108;-71
2021/10/22 09:35:52;;;;;;;22.70;16.83;;;;;;;25.90;43.65;99968.28;1793860;79;21514;-71
2021/10/22 09:38:25;;;;;;;21.63;18.00;;;;;;;25.96;43.23;99973.02;1793532;79;21854;-70
2021/10/22 09:41:03;;;;;;;26.30;22.37;;;;;;;26.04;43.32;99978.23;1785654;78;21103;-71
2021/10/22 09:43:37;;;;;;;28.83;19.87;;;;;;;26.24;42.98;99981.09;1782118;79;21109;-71
2021/10/22 09:46:21;;;;;;;25.17;21.03;;;;;;;26.23;42.65;99976.84;1793936;78;21115;-71
2021/10/22 09:48:50;;;;;;;25.23;19.57;;;;;;;26.17;43.06;99971.56;1779749;79;21065;-71
2021/10/22 09:51:34;;;;;;;19.60;15.43;;;;;;;26.39;42.59;99970.13;1787075;79;21073;-72
2021/10/22 09:54:12;;;;;;;23.10;17.80;;;;;;;26.34;42.72;99975.03;1783255;78;20960;-71
2021/10/22 09:56:44;;;;;;;23.00;20.27;;;;;;;26.30;42.54;99972.70;1788647;79;21544;-71
2021/10/22 09:59:24;;;;;;;31.57;25.63;;;;;;;26.53;42.14;99978.20;1789902;78;21512;-70
2021/10/22 10:01:56;;;;;;;42.27;36.17;;;;;;;26.46;42.57;99978.58;1782339;78;21003;-70
2021/10/22 10:04:27;;;;;;;36.83;30.87;;;;;;;26.77;41.96;99973.44;1813909;77;21062;-71
2021/10/22 10:06:58;;;;;;;29.23;23.40;;;;;;;26.95;41.75;99961.61;1813445;78;21038;-70
2021/10/22 10:09:27;;;;;;;27.42;23.60;;;;;;;27.28;41.56;99958.27;1824861;77;20872;-70
2021/10/22 10:11:57;;;;;;;24.23;18.97;;;;;;;27.67;40.96;99965.66;1812242;77;21155;-73
2021/10/22 10:14:27;;;;;;;18.17;15.08;;;;;;;27.89;40.33;99966.23;1824914;77;21367;-72
2021/10/22 10:16:54;;;;;;;21.50;16.03;;;;;;;28.34;39.21;99976.89;1809326;77;21051;-72
2021/10/22 10:19:32;;;;;;;20.93;16.67;;;;;;;28.51;38.79;99977.53;1805137;78;21003;-70
2021/10/22 10:22:02;;;;;;;17.50;14.27;;;;;;;28.94;38.22;99964.23;1825184;78;21437;-74
2021/10/22 10:24:41;;;;;;;18.05;13.13;;;;;;;29.17;37.25;99968.99;1824090;77;21125;-73
2021/10/22 10:27:12;;;;;;;19.93;15.47;;;;;;;29.65;36.23;99966.72;1822365;77;20924;-74
2021/10/22 10:29:44;;;;;;;19.83;15.00;;;;;;;29.87;35.55;99971.67;1809618;78;21050;-73
2021/10/22 10:32:15;;;;;;;16.43;13.80;;;;;;;29.89;35.00;99973.48;1817646;77;20938;-73
2021/10/22 10:34:50;;;;;;;19.67;12.90;;;;;;;29.58;35.18;99970.44;1824460;77;21097;-70
2021/10/22 10:37:30;;;;;;;16.70;12.80;;;;;;;29.10;35.59;99972.69;1819457;77;21779;-71
2021/10/22 10:40:01;;;;;;;16.80;14.03;;;;;;;28.91;35.94;99975.63;1817624;78;20978;-71
2021/10/22 10:43:04;;;;;;;17.70;14.20;;;;;;;28.75;36.13;99983.31;1816820;77;21038;-73
2021/10/22 10:45:38;;;;;;;17.83;14.67;;;;;;;28.77;36.03;99978.41;1805578;77;21035;-70
2021/10/22 10:48:21;;;;;;;19.27;15.03;;;;;;;28.62;36.25;99977.50;1806088;77;21109;-71
2021/10/22 10:50:58;;;;;;;19.67;14.40;;;;;;;28.29;36.78;99969.75;1802616;77;21126;-73
2021/10/22 10:53:35;;;;;;;19.47;15.43;;;;;;;28.07;37.38;99955.05;1804583;77;20982;-74
2021/10/22 10:56:38;;;;;;;19.83;14.90;;;;;;;28.17;37.34;99957.48;1804204;77;21173;-71
2021/10/22 10:59:04;;;;;;;21.30;14.27;;;;;;;28.31;37.54;99955.50;1824733;77;20956;-73
2021/10/22 11:01:39;;;;;;;20.40;14.47;;;;;;;28.80;36.88;99953.66;1821043;77;20995;-73
2021/10/22 11:04:03;;;;;;;20.68;13.85;;;;;;;28.26;37.54;99958.85;1784437;77;21810;-72
2021/10/22 11:06:44;;;;;;;17.70;13.43;;;;;;;28.26;37.54;99958.85;1810487;76;20989;-72
2021/10/22 11:09:16;;;;;;;17.32;13.32;;;;;;;28.18;37.41;99958.27;1803994;77;21425;-73
2021/10/22 11:11:44;;;;;;;13.90;11.33;;;;;;;28.01;37.83;99958.97;1819369;77;21310;-72
2021/10/22 11:14:13;;;;;;;17.90;12.40;;;;;;;27.81;38.08;99955.70;1815865;77;20917;-72
2021/10/22 11:16:53;;;;;;;16.73;12.70;;;;;;;27.71;38.29;99956.47;1822148;77;21129;-72
2021/10/22 11:19:26;;;;;;;15.83;13.38;;;;;;;27.77;38.26;99949.38;1821205;77;28715;-73
2021/10/22 11:21:54;;;;;;;;;;;;;;;28.41;37.38;99959.03;1817226;78;20880;-75
2021/10/22 11:24:32;;;;;;;16.00;12.10;;;;;;;28.72;36.57;99958.45;1824456;77;20212;-74
2021/10/22 11:27:02;;;;;;;17.03;11.87;;;;;;;29.00;35.88;99960.91;1823879;77;21002;-72
2021/10/22 11:29:35;;;;;;;14.60;11.53;;;;;;;28.66;36.42;99960.23;1822791;77;21150;-74
2021/10/22 11:32:11;;;;;;;16.80;11.30;;;;;;;28.79;36.37;99957.45;1823961;77;20954;-70
2021/10/22 11:34:41;;;;;;;16.50;12.43;;;;;;;28.99;35.78;99963.36;1820274;77;21066;-72
2021/10/22 11:37:15;;;;;;;14.63;12.43;;;;;;;28.94;36.09;99962.90;1824200;77;20914;-74
2021/10/22 11:39:51;;;;;;;18.20;12.57;;;;;;;29.24;35.44;99959.11;1819930;77;20990;-72